sensor_id;sensor_type;location;lat;lon;timestamp;pressure;altitude;pressure_sealevel;temperature;humidity
70053;BME280;57398;52.032;4.376;2024-02-28T00:01:00;102389.56;;;4.02;100.00
70053;BME280;57398;52.032;4.376;2024-02-28T00:03:50;102395.25;;;4.06;100.00
70053;BME280;57398;52.032;4.376;2024-02-28T00:06:38;102395.25;;;4.06;100.00
70053;BME280;57398;52.032;4.376;2024-02-28T00:09:26;102387.78;;;4.03;100.00
70053;BME280;57398;52.032;4.376;2024-02-28T00:12:15;102386.44;;;3.98;100.00
70053;BME280;57398;52.032;4.376;2024-02-28T00:15:04;102378.06;;;3.96;100.00
70053;BME280;57398;52.032;4.376;2024-02-28T00:17:57;102377.09;;;3.97;100.00
70053;BME280;57398;52.032;4.376;2024-02-28T00:20:46;102384.53;;;3.91;100.00
70053;BME280;57398;52.032;4.376;2024-02-28T00:23:34;102385.50;;;3.90;100.00
70053;BME280;57398;52.032;4.376;2024-02-28T00:26:22;102378.72;;;3.89;100.00
70053;BME280;57398;52.032;4.376;2024-02-28T00:29:11;102379.94;;;3.85;100.00
70053;BME280;57398;52.032;4.376;2024-02-28T00:31:59;102374.78;;;3.85;100.00
70053;BME280;57398;52.032;4.376;2024-02-28T00:34:47;102378.47;;;3.72;100.00
70053;BME280;57398;52.032;4.376;2024-02-28T00:37:36;102382.25;;;3.68;100.00
70053;BME280;57398;52.032;4.376;2024-02-28T00:40:24;102379.00;;;3.66;100.00
70053;BME280;57398;52.032;4.376;2024-02-28T00:43:12;102378.72;;;3.60;100.00
70053;BME280;57398;52.032;4.376;2024-02-28T00:46:00;102384.94;;;3.57;100.00
70053;BME280;57398;52.032;4.376;2024-02-28T00:48:50;102396.97;;;3.56;100.00
70053;BME280;57398;52.032;4.376;2024-02-28T00:51:38;102404.41;;;3.60;100.00
70053;BME280;57398;52.032;4.376;2024-02-28T00:54:28;102406.84;;;3.61;100.00
70053;BME280;57398;52.032;4.376;2024-02-28T00:57:16;102406.44;;;3.66;100.00
70053;BME280;57398;52.032;4.376;2024-02-28T01:00:05;102411.06;;;3.72;100.00
70053;BME280;57398;52.032;4.376;2024-02-28T01:02:53;102407.53;;;3.73;100.00
70053;BME280;57398;52.032;4.376;2024-02-28T01:05:41;102401.72;;;3.71;100.00
70053;BME280;57398;52.032;4.376;2024-02-28T01:08:30;102394.69;;;3.73;100.00
70053;BME280;57398;52.032;4.376;2024-02-28T01:11:20;102399.31;;;3.79;100.00
70053;BME280;57398;52.032;4.376;2024-02-28T01:14:08;102402.28;;;3.84;100.00
70053;BME280;57398;52.032;4.376;2024-02-28T01:16:56;102393.75;;;3.84;100.00
70053;BME280;57398;52.032;4.376;2024-02-28T01:19:44;102398.78;;;3.85;100.00
70053;BME280;57398;52.032;4.376;2024-02-28T01:22:32;102398.63;;;3.87;100.00
70053;BME280;57398;52.032;4.376;2024-02-28T01:25:20;102391.59;;;3.89;100.00
70053;BME280;57398;52.032;4.376;2024-02-28T01:28:09;102396.31;;;3.93;100.00
70053;BME280;57398;52.032;4.376;2024-02-28T01:30:58;102388.88;;;3.90;100.00
70053;BME280;57398;52.032;4.376;2024-02-28T01:33:47;102396.47;;;3.92;100.00
70053;BME280;57398;52.032;4.376;2024-02-28T01:36:35;102386.72;;;3.95;100.00
70053;BME280;57398;52.032;4.376;2024-02-28T01:39:23;102389.41;;;3.94;100.00
70053;BME280;57398;52.032;4.376;2024-02-28T01:42:11;102389.28;;;3.95;100.00
70053;BME280;57398;52.032;4.376;2024-02-28T01:45:01;102386.59;;;3.97;100.00
70053;BME280;57398;52.032;4.376;2024-02-28T01:47:49;102397.38;;;4.01;100.00
70053;BME280;57398;52.032;4.376;2024-02-28T01:50:38;102399.03;;;4.02;100.00
70053;BME280;57398;52.032;4.376;2024-02-28T01:53:26;102398.75;;;4.05;100.00
70053;BME280;57398;52.032;4.376;2024-02-28T01:56:14;102395.09;;;4.07;100.00
70053;BME280;57398;52.032;4.376;2024-02-28T01:59:03;102396.06;;;4.06;100.00
70053;BME280;57398;52.032;4.376;2024-02-28T02:01:53;102395.63;;;4.11;100.00
70053;BME280;57398;52.032;4.376;2024-02-28T02:04:41;102389.81;;;4.09;100.00
70053;BME280;57398;52.032;4.376;2024-02-28T02:07:30;102386.56;;;4.07;100.00
70053;BME280;57398;52.032;4.376;2024-02-28T02:10:19;102392.69;;;4.06;100.00
70053;BME280;57398;52.032;4.376;2024-02-28T02:13:07;102388.47;;;4.05;100.00
70053;BME280;57398;52.032;4.376;2024-02-28T02:15:55;102394.41;;;4.05;100.00
70053;BME280;57398;52.032;4.376;2024-02-28T02:18:46;102393.34;;;4.08;100.00
70053;BME280;57398;52.032;4.376;2024-02-28T02:21:39;102393.06;;;4.11;100.00
70053;BME280;57398;52.032;4.376;2024-02-28T02:24:30;102389.69;;;4.10;100.00
70053;BME280;57398;52.032;4.376;2024-02-28T02:27:18;102392.25;;;4.10;100.00
70053;BME280;57398;52.032;4.376;2024-02-28T02:30:07;102396.84;;;4.07;100.00
70053;BME280;57398;52.032;4.376;2024-02-28T02:32:55;102401.06;;;4.08;100.00
70053;BME280;57398;52.032;4.376;2024-02-28T02:35:43;102397.13;;;4.13;100.00
70053;BME280;57398;52.032;4.376;2024-02-28T02:38:31;102400.91;;;4.19;100.00
70053;BME280;57398;52.032;4.376;2024-02-28T02:41:20;102391.16;;;4.23;100.00
70053;BME280;57398;52.032;4.376;2024-02-28T02:44:09;102391.16;;;4.23;100.00
70053;BME280;57398;52.032;4.376;2024-02-28T02:46:57;102393.19;;;4.29;100.00
70053;BME280;57398;52.032;4.376;2024-02-28T02:49:45;102386.41;;;4.28;100.00
70053;BME280;57398;52.032;4.376;2024-02-28T02:52:33;102385.47;;;4.29;100.00
70053;BME280;57398;52.032;4.376;2024-02-28T02:55:21;102391.28;;;4.31;100.00
70053;BME280;57398;52.032;4.376;2024-02-28T02:58:10;102390.31;;;4.32;100.00
70053;BME280;57398;52.032;4.376;2024-02-28T03:00:58;102384.91;;;4.35;100.00
70053;BME280;57398;52.032;4.376;2024-02-28T03:03:47;102373.94;;;4.33;100.00
70053;BME280;57398;52.032;4.376;2024-02-28T03:06:35;102376.09;;;4.37;100.00
70053;BME280;57398;52.032;4.376;2024-02-28T03:09:23;102376.91;;;4.38;100.00
70053;BME280;57398;52.032;4.376;2024-02-28T03:12:11;102374.88;;;4.41;100.00
70053;BME280;57398;52.032;4.376;2024-02-28T03:15:01;102377.31;;;4.43;100.00
70053;BME280;57398;52.032;4.376;2024-02-28T03:17:49;102369.59;;;4.43;100.00
70053;BME280;57398;52.032;4.376;2024-02-28T03:20:38;102371.75;;;4.48;100.00
70053;BME280;57398;52.032;4.376;2024-02-28T03:23:26;102367.69;;;4.45;100.00
70053;BME280;57398;52.032;4.376;2024-02-28T03:26:14;102369.72;;;4.51;100.00
70053;BME280;57398;52.032;4.376;2024-02-28T03:29:03;102362.50;;;4.55;100.00
70053;BME280;57398;52.032;4.376;2024-02-28T03:31:52;102357.22;;;4.56;100.00
70053;BME280;57398;52.032;4.376;2024-02-28T03:34:40;102358.84;;;4.57;100.00
70053;BME280;57398;52.032;4.376;2024-02-28T03:37:29;102361.28;;;4.59;100.00
70053;BME280;57398;52.032;4.376;2024-02-28T03:40:17;102366.94;;;4.62;100.00
70053;BME280;57398;52.032;4.376;2024-02-28T03:43:05;102366.81;;;4.64;100.00
70053;BME280;57398;52.032;4.376;2024-02-28T03:45:53;102372.34;;;4.69;100.00
70053;BME280;57398;52.032;4.376;2024-02-28T03:48:43;102363.00;;;4.68;100.00
70053;BME280;57398;52.032;4.376;2024-02-28T03:51:31;102358.53;;;4.70;100.00
70053;BME280;57398;52.032;4.376;2024-02-28T03:54:19;102357.44;;;4.73;100.00
70053;BME280;57398;52.032;4.376;2024-02-28T03:57:07;102362.44;;;4.74;100.00
70053;BME280;57398;52.032;4.376;2024-02-28T03:59:55;102372.59;;;4.76;100.00
70053;BME280;57398;52.032;4.376;2024-02-28T04:02:44;102375.03;;;4.77;100.00
70053;BME280;57398;52.032;4.376;2024-02-28T04:05:33;102368.09;;;4.78;100.00
70053;BME280;57398;52.032;4.376;2024-02-28T04:08:21;102377.91;;;4.74;100.00
70053;BME280;57398;52.032;4.376;2024-02-28T04:11:10;102380.19;;;4.77;100.00
70053;BME280;57398;52.032;4.376;2024-02-28T04:13:58;102370.69;;;4.78;100.00
70053;BME280;57398;52.032;4.376;2024-02-28T04:16:46;102368.25;;;4.76;100.00
70053;BME280;57398;52.032;4.376;2024-02-28T04:19:34;102374.22;;;4.77;100.00
70053;BME280;57398;52.032;4.376;2024-02-28T04:22:25;102384.34;;;4.78;100.00
70053;BME280;57398;52.032;4.376;2024-02-28T04:25:13;102386.13;;;4.78;100.00
70053;BME280;57398;52.032;4.376;2024-02-28T04:28:01;102388.56;;;4.79;100.00
70053;BME280;57398;52.032;4.376;2024-02-28T04:30:50;102390.19;;;4.80;100.00
70053;BME280;57398;52.032;4.376;2024-02-28T04:33:38;102393.56;;;4.81;100.00
70053;BME280;57398;52.032;4.376;2024-02-28T04:36:26;102398.44;;;4.84;100.00
70053;BME280;57398;52.032;4.376;2024-02-28T04:39:16;102403.47;;;4.86;100.00
70053;BME280;57398;52.032;4.376;2024-02-28T04:42:04;102412.13;;;4.85;100.00
70053;BME280;57398;52.032;4.376;2024-02-28T04:44:52;102405.06;;;4.87;100.00
70053;BME280;57398;52.032;4.376;2024-02-28T04:47:40;102409.41;;;4.86;100.00
70053;BME280;57398;52.032;4.376;2024-02-28T04:50:31;102412.00;;;4.86;100.00
70053;BME280;57398;52.032;4.376;2024-02-28T04:53:19;102405.75;;;4.89;100.00
70053;BME280;57398;52.032;4.376;2024-02-28T04:56:08;102405.06;;;4.87;100.00
70053;BME280;57398;52.032;4.376;2024-02-28T04:58:57;102399.78;;;4.88;100.00
70053;BME280;57398;52.032;4.376;2024-02-28T05:01:45;102404.78;;;4.90;100.00
70053;BME280;57398;52.032;4.376;2024-02-28T05:04:34;102404.78;;;4.90;100.00
70053;BME280;57398;52.032;4.376;2024-02-28T05:07:22;102410.59;;;4.92;100.00
70053;BME280;57398;52.032;4.376;2024-02-28T05:10:10;102404.50;;;4.93;100.00
70053;BME280;57398;52.032;4.376;2024-02-28T05:13:00;102412.91;;;4.95;100.00
70053;BME280;57398;52.032;4.376;2024-02-28T05:15:49;102412.91;;;4.95;100.00
70053;BME280;57398;52.032;4.376;2024-02-28T05:18:38;102417.91;;;4.96;100.00
70053;BME280;57398;52.032;4.376;2024-02-28T05:21:26;102433.22;;;4.98;100.00
70053;BME280;57398;52.032;4.376;2024-02-28T05:24:15;102431.44;;;4.98;100.00
70053;BME280;57398;52.032;4.376;2024-02-28T05:27:03;102429.41;;;5.02;100.00
70053;BME280;57398;52.032;4.376;2024-02-28T05:29:52;102425.06;;;5.02;100.00
70053;BME280;57398;52.032;4.376;2024-02-28T05:32:40;102414.63;;;5.04;100.00
70053;BME280;57398;52.032;4.376;2024-02-28T05:35:29;102413.66;;;5.05;100.00
70053;BME280;57398;52.032;4.376;2024-02-28T05:38:17;102417.72;;;5.08;100.00
70053;BME280;57398;52.032;4.376;2024-02-28T05:41:05;102421.25;;;5.07;100.00
70053;BME280;57398;52.032;4.376;2024-02-28T05:43:53;102421.94;;;5.09;100.00
70053;BME280;57398;52.032;4.376;2024-02-28T05:46:42;102416.91;;;5.07;100.00
70053;BME280;57398;52.032;4.376;2024-02-28T05:49:30;102415.00;;;5.09;100.00
70053;BME280;57398;52.032;4.376;2024-02-28T05:52:18;102412.69;;;5.06;100.00
70053;BME280;57398;52.032;4.376;2024-02-28T05:55:07;102419.19;;;5.10;100.00
70053;BME280;57398;52.032;4.376;2024-02-28T05:57:55;102423.25;;;5.13;100.00
70053;BME280;57398;52.032;4.376;2024-02-28T06:00:43;102428.25;;;5.14;100.00
70053;BME280;57398;52.032;4.376;2024-02-28T06:03:32;102424.72;;;5.15;100.00
70053;BME280;57398;52.032;4.376;2024-02-28T06:06:21;102431.50;;;5.16;100.00
70053;BME280;57398;52.032;4.376;2024-02-28T06:09:09;102430.84;;;5.14;100.00
70053;BME280;57398;52.032;4.376;2024-02-28T06:11:57;102433.28;;;5.16;100.00
70053;BME280;57398;52.032;4.376;2024-02-28T06:14:46;102424.47;;;5.18;100.00
70053;BME280;57398;52.032;4.376;2024-02-28T06:17:34;102435.03;;;5.15;100.00
70053;BME280;57398;52.032;4.376;2024-02-28T06:20:24;102436.78;;;5.15;100.00
70053;BME280;57398;52.032;4.376;2024-02-28T06:23:12;102445.34;;;5.15;100.00
70053;BME280;57398;52.032;4.376;2024-02-28T06:26:13;102443.59;;;5.16;100.00
70053;BME280;57398;52.032;4.376;2024-02-28T06:29:04;102458.88;;;5.17;100.00
70053;BME280;57398;52.032;4.376;2024-02-28T06:31:53;102460.53;;;5.18;100.00
70053;BME280;57398;52.032;4.376;2024-02-28T06:34:42;102472.97;;;5.23;100.00
70053;BME280;57398;52.032;4.376;2024-02-28T06:37:31;102472.31;;;5.21;100.00
70053;BME280;57398;52.032;4.376;2024-02-28T06:40:20;102471.88;;;5.25;100.00
70053;BME280;57398;52.032;4.376;2024-02-28T06:43:08;102469.31;;;5.25;100.00
70053;BME280;57398;52.032;4.376;2024-02-28T06:45:56;102470.78;;;5.28;100.00
70053;BME280;57398;52.032;4.376;2024-02-28T06:48:47;102484.03;;;5.33;100.00
70053;BME280;57398;52.032;4.376;2024-02-28T06:51:36;102481.47;;;5.33;100.00
70053;BME280;57398;52.032;4.376;2024-02-28T06:54:25;102477.94;;;5.34;100.00
70053;BME280;57398;52.032;4.376;2024-02-28T06:57:13;102487.16;;;5.37;100.00
70053;BME280;57398;52.032;4.376;2024-02-28T07:00:02;102475.19;;;5.36;100.00
70053;BME280;57398;52.032;4.376;2024-02-28T07:02:50;102479.94;;;5.40;100.00
70053;BME280;57398;52.032;4.376;2024-02-28T07:05:38;102474.50;;;5.43;100.00
70053;BME280;57398;52.032;4.376;2024-02-28T07:08:26;102485.31;;;5.47;100.00
70053;BME280;57398;52.032;4.376;2024-02-28T07:11:16;102480.72;;;5.51;100.00
70053;BME280;57398;52.032;4.376;2024-02-28T07:14:04;102489.25;;;5.51;100.00
70053;BME280;57398;52.032;4.376;2024-02-28T07:16:52;102488.44;;;5.51;100.00
70053;BME280;57398;52.032;4.376;2024-02-28T07:19:41;102492.50;;;5.53;100.00
70053;BME280;57398;52.032;4.376;2024-02-28T07:22:29;102508.63;;;5.55;100.00
70053;BME280;57398;52.032;4.376;2024-02-28T07:25:17;102495.59;;;5.57;100.00
70053;BME280;57398;52.032;4.376;2024-02-28T07:28:10;102501.25;;;5.60;100.00
70053;BME280;57398;52.032;4.376;2024-02-28T07:30:58;102501.25;;;5.60;100.00
70053;BME280;57398;52.032;4.376;2024-02-28T07:33:46;102505.19;;;5.64;100.00
70053;BME280;57398;52.032;4.376;2024-02-28T07:36:35;102506.97;;;5.64;100.00
70053;BME280;57398;52.032;4.376;2024-02-28T07:39:23;102509.38;;;5.65;100.00
70053;BME280;57398;52.032;4.376;2024-02-28T07:42:11;102509.38;;;5.65;100.00
70053;BME280;57398;52.032;4.376;2024-02-28T07:45:00;102513.97;;;5.72;100.00
70053;BME280;57398;52.032;4.376;2024-02-28T07:47:48;102525.38;;;5.69;100.00
70053;BME280;57398;52.032;4.376;2024-02-28T07:50:36;102527.41;;;5.65;100.00
70053;BME280;57398;52.032;4.376;2024-02-28T07:53:25;102534.72;;;5.70;100.00
70053;BME280;57398;52.032;4.376;2024-02-28T07:56:15;102538.94;;;5.71;100.00
70053;BME280;57398;52.032;4.376;2024-02-28T07:59:04;102541.09;;;5.76;100.00
70053;BME280;57398;52.032;4.376;2024-02-28T08:01:53;102540.78;;;5.79;100.00
70053;BME280;57398;52.032;4.376;2024-02-28T08:04:42;102537.94;;;5.82;100.00
70053;BME280;57398;52.032;4.376;2024-02-28T08:07:30;102534.53;;;5.81;100.00
70053;BME280;57398;52.032;4.376;2024-02-28T08:10:18;102536.97;;;5.83;100.00
70053;BME280;57398;52.032;4.376;2024-02-28T08:13:11;102540.88;;;5.87;100.00
70053;BME280;57398;52.032;4.376;2024-02-28T08:16:00;102546.84;;;5.87;100.00
70053;BME280;57398;52.032;4.376;2024-02-28T08:18:50;102549.56;;;5.86;100.00
70053;BME280;57398;52.032;4.376;2024-02-28T08:21:38;102555.13;;;5.91;100.00
70053;BME280;57398;52.032;4.376;2024-02-28T08:24:26;102551.31;;;5.95;100.00
70053;BME280;57398;52.032;4.376;2024-02-28T08:27:14;102558.34;;;5.93;100.00
70053;BME280;57398;52.032;4.376;2024-02-28T08:30:03;102556.19;;;5.98;100.00
70053;BME280;57398;52.032;4.376;2024-02-28T08:32:52;102552.34;;;6.02;100.00
70053;BME280;57398;52.032;4.376;2024-02-28T08:35:42;102562.91;;;6.09;100.00
70053;BME280;57398;52.032;4.376;2024-02-28T08:38:30;102569.56;;;6.12;100.00
70053;BME280;57398;52.032;4.376;2024-02-28T08:41:18;102574.41;;;6.15;100.00
70053;BME280;57398;52.032;4.376;2024-02-28T08:44:06;102572.50;;;6.17;100.00
70053;BME280;57398;52.032;4.376;2024-02-28T08:46:54;102565.72;;;6.16;100.00
70053;BME280;57398;52.032;4.376;2024-02-28T08:49:42;102562.84;;;6.19;100.00
70053;BME280;57398;52.032;4.376;2024-02-28T08:52:32;102551.13;;;6.24;100.00
70053;BME280;57398;52.032;4.376;2024-02-28T08:55:21;102547.53;;;6.35;100.00
70053;BME280;57398;52.032;4.376;2024-02-28T08:58:09;102556.59;;;6.39;100.00
70053;BME280;57398;52.032;4.376;2024-02-28T09:00:57;102554.50;;;6.43;100.00
70053;BME280;57398;52.032;4.376;2024-02-28T09:03:45;102552.06;;;6.41;100.00
70053;BME280;57398;52.032;4.376;2024-02-28T09:06:33;102556.97;;;6.44;100.00
70053;BME280;57398;52.032;4.376;2024-02-28T09:09:23;102562.25;;;6.61;100.00
70053;BME280;57398;52.032;4.376;2024-02-28T09:12:11;102550.44;;;6.76;100.00
70053;BME280;57398;52.032;4.376;2024-02-28T09:14:59;102542.94;;;6.91;100.00
70053;BME280;57398;52.032;4.376;2024-02-28T09:17:48;102544.66;;;7.08;100.00
70053;BME280;57398;52.032;4.376;2024-02-28T09:20:36;102534.47;;;7.07;100.00
70053;BME280;57398;52.032;4.376;2024-02-28T09:23:24;102537.41;;;7.12;100.00
70053;BME280;57398;52.032;4.376;2024-02-28T09:26:13;102540.34;;;7.17;100.00
70053;BME280;57398;52.032;4.376;2024-02-28T09:29:01;102544.75;;;7.25;100.00
70053;BME280;57398;52.032;4.376;2024-02-28T09:31:49;102543.44;;;7.21;100.00
70053;BME280;57398;52.032;4.376;2024-02-28T09:34:37;102542.03;;;7.26;100.00
70053;BME280;57398;52.032;4.376;2024-02-28T09:37:25;102551.44;;;7.36;100.00
70053;BME280;57398;52.032;4.376;2024-02-28T09:40:15;102547.88;;;7.37;100.00
70053;BME280;57398;52.032;4.376;2024-02-28T09:43:06;102543.03;;;7.42;100.00
70053;BME280;57398;52.032;4.376;2024-02-28T09:46:00;102538.84;;;7.41;100.00
70053;BME280;57398;52.032;4.376;2024-02-28T09:48:52;102541.38;;;7.32;100.00
70053;BME280;57398;52.032;4.376;2024-02-28T09:51:43;102538.13;;;7.30;100.00
70053;BME280;57398;52.032;4.376;2024-02-28T09:54:32;102532.34;;;7.28;100.00
70053;BME280;57398;52.032;4.376;2024-02-28T09:57:21;102522.16;;;7.35;100.00
70053;BME280;57398;52.032;4.376;2024-02-28T10:00:18;102523.47;;;7.31;100.00
70053;BME280;57398;52.032;4.376;2024-02-28T10:03:07;102530.56;;;7.37;100.00
70053;BME280;57398;52.032;4.376;2024-02-28T10:05:56;102527.19;;;7.37;100.00
70053;BME280;57398;52.032;4.376;2024-02-28T10:08:47;102525.06;;;7.32;100.00
70053;BME280;57398;52.032;4.376;2024-02-28T10:11:35;102523.00;;;7.36;100.00
70053;BME280;57398;52.032;4.376;2024-02-28T10:14:24;102521.06;;;7.38;100.00
70053;BME280;57398;52.032;4.376;2024-02-28T10:17:13;102524.47;;;7.46;100.00
70053;BME280;57398;52.032;4.376;2024-02-28T10:20:01;102525.84;;;7.59;100.00
70053;BME280;57398;52.032;4.376;2024-02-28T10:22:52;102517.09;;;7.51;100.00
70053;BME280;57398;52.032;4.376;2024-02-28T10:25:44;102523.06;;;7.60;100.00
70053;BME280;57398;52.032;4.376;2024-02-28T10:28:43;102519.88;;;7.66;100.00
70053;BME280;57398;52.032;4.376;2024-02-28T10:31:32;102523.44;;;7.73;100.00
70053;BME280;57398;52.032;4.376;2024-02-28T10:34:22;102511.50;;;7.72;100.00
70053;BME280;57398;52.032;4.376;2024-02-28T10:37:11;102512.44;;;7.71;100.00
70053;BME280;57398;52.032;4.376;2024-02-28T10:40:00;102515.38;;;7.76;100.00
70053;BME280;57398;52.032;4.376;2024-02-28T10:42:49;102514.72;;;7.83;100.00
70053;BME280;57398;52.032;4.376;2024-02-28T10:45:38;102513.91;;;7.74;100.00
70053;BME280;57398;52.032;4.376;2024-02-28T10:48:46;102510.03;;;7.78;100.00
70053;BME280;57398;52.032;4.376;2024-02-28T10:51:39;102517.97;;;7.76;100.00
70053;BME280;57398;52.032;4.376;2024-02-28T10:54:29;102532.53;;;7.86;100.00
70053;BME280;57398;52.032;4.376;2024-02-28T10:57:19;102511.66;;;7.79;100.00
70053;BME280;57398;52.032;4.376;2024-02-28T11:00:11;102516.88;;;7.95;100.00
70053;BME280;57398;52.032;4.376;2024-02-28T11:03:00;102510.41;;;8.08;100.00
70053;BME280;57398;52.032;4.376;2024-02-28T11:05:50;102514.16;;;8.30;100.00
70053;BME280;57398;52.032;4.376;2024-02-28T11:08:40;102500.22;;;8.31;100.00
70053;BME280;57398;52.032;4.376;2024-02-28T11:11:31;102501.03;;;8.23;100.00
70053;BME280;57398;52.032;4.376;2024-02-28T11:14:20;102501.69;;;8.33;100.00
70053;BME280;57398;52.032;4.376;2024-02-28T11:17:11;102499.94;;;8.50;100.00
70053;BME280;57398;52.032;4.376;2024-02-28T11:19:59;102496.19;;;8.28;100.00
70053;BME280;57398;52.032;4.376;2024-02-28T11:22:47;102492.00;;;8.27;100.00
70053;BME280;57398;52.032;4.376;2024-02-28T11:25:37;102483.25;;;8.28;100.00
70053;BME280;57398;52.032;4.376;2024-02-28T11:28:25;102485.50;;;8.23;100.00
70053;BME280;57398;52.032;4.376;2024-02-28T11:31:13;102482.47;;;8.44;100.00
70053;BME280;57398;52.032;4.376;2024-02-28T11:34:02;102478.22;;;8.59;100.00
70053;BME280;57398;52.032;4.376;2024-02-28T11:36:51;102476.44;;;8.52;100.00
70053;BME280;57398;52.032;4.376;2024-02-28T11:39:40;102484.56;;;8.49;100.00
70053;BME280;57398;52.032;4.376;2024-02-28T11:42:29;102475.34;;;8.54;100.00
70053;BME280;57398;52.032;4.376;2024-02-28T11:45:18;102471.59;;;8.57;100.00
70053;BME280;57398;52.032;4.376;2024-02-28T11:48:06;102473.88;;;8.44;100.00
70053;BME280;57398;52.032;4.376;2024-02-28T11:50:56;102469.47;;;8.36;100.00
70053;BME280;57398;52.032;4.376;2024-02-28T11:53:45;102486.63;;;8.29;100.00
70053;BME280;57398;52.032;4.376;2024-02-28T11:56:33;102487.13;;;8.32;100.00
70053;BME280;57398;52.032;4.376;2024-02-28T11:59:23;102488.09;;;8.31;100.00
70053;BME280;57398;52.032;4.376;2024-02-28T12:02:12;102486.63;;;8.29;100.00
70053;BME280;57398;52.032;4.376;2024-02-28T12:05:01;102487.94;;;8.25;100.00
70053;BME280;57398;52.032;4.376;2024-02-28T12:07:50;102486.66;;;8.21;100.00
70053;BME280;57398;52.032;4.376;2024-02-28T12:10:42;102491.31;;;8.17;100.00
70053;BME280;57398;52.032;4.376;2024-02-28T12:13:31;102484.84;;;8.13;100.00
70053;BME280;57398;52.032;4.376;2024-02-28T12:16:24;102485.97;;;8.10;100.00
70053;BME280;57398;52.032;4.376;2024-02-28T12:19:13;102483.75;;;8.15;100.00
70053;BME280;57398;52.032;4.376;2024-02-28T12:22:02;102478.06;;;8.28;100.00
70053;BME280;57398;52.032;4.376;2024-02-28T12:24:51;102468.22;;;8.48;100.00
70053;BME280;57398;52.032;4.376;2024-02-28T12:27:39;102457.84;;;8.48;100.00
70053;BME280;57398;52.032;4.376;2024-02-28T12:30:27;102454.25;;;8.66;100.00
70053;BME280;57398;52.032;4.376;2024-02-28T12:33:17;102464.00;;;8.64;100.00
70053;BME280;57398;52.032;4.376;2024-02-28T12:36:05;102461.56;;;8.54;100.00
70053;BME280;57398;52.032;4.376;2024-02-28T12:38:53;102459.31;;;8.43;100.00
70053;BME280;57398;52.032;4.376;2024-02-28T12:41:42;102458.34;;;8.44;100.00
70053;BME280;57398;52.032;4.376;2024-02-28T12:44:30;102455.91;;;8.42;100.00
70053;BME280;57398;52.032;4.376;2024-02-28T12:47:18;102458.16;;;8.45;100.00
70053;BME280;57398;52.032;4.376;2024-02-28T12:50:08;102454.94;;;8.43;100.00
70053;BME280;57398;52.032;4.376;2024-02-28T12:52:57;102441.66;;;8.54;100.00
70053;BME280;57398;52.032;4.376;2024-02-28T12:55:47;102438.59;;;8.59;100.00
70053;BME280;57398;52.032;4.376;2024-02-28T12:58:35;102442.09;;;8.74;100.00
70053;BME280;57398;52.032;4.376;2024-02-28T13:01:23;102437.41;;;8.70;100.00
70053;BME280;57398;52.032;4.376;2024-02-28T13:04:12;102446.66;;;8.64;100.00
70053;BME280;57398;52.032;4.376;2024-02-28T13:07:01;102431.31;;;8.54;100.00
70053;BME280;57398;52.032;4.376;2024-02-28T13:09:49;102436.16;;;8.57;100.00
70053;BME280;57398;52.032;4.376;2024-02-28T13:12:38;102430.47;;;8.62;100.00
70053;BME280;57398;52.032;4.376;2024-02-28T13:15:26;102431.13;;;8.56;100.00
70053;BME280;57398;52.032;4.376;2024-02-28T13:18:14;102427.22;;;8.60;100.00
70053;BME280;57398;52.032;4.376;2024-02-28T13:21:03;102427.06;;;8.62;100.00
70053;BME280;57398;52.032;4.376;2024-02-28T13:23:53;102420.09;;;8.62;100.00
70053;BME280;57398;52.032;4.376;2024-02-28T13:26:41;102418.66;;;8.51;100.00
70053;BME280;57398;52.032;4.376;2024-02-28T13:29:29;102406.69;;;8.50;100.00
70053;BME280;57398;52.032;4.376;2024-02-28T13:32:19;102406.38;;;8.45;100.00
70053;BME280;57398;52.032;4.376;2024-02-28T13:35:07;102391.47;;;8.47;100.00
70053;BME280;57398;52.032;4.376;2024-02-28T13:37:56;102385.66;;;8.45;100.00
70053;BME280;57398;52.032;4.376;2024-02-28T13:40:48;102379.50;;;8.38;100.00
70053;BME280;57398;52.032;4.376;2024-02-28T13:43:37;102366.25;;;8.41;100.00
70053;BME280;57398;52.032;4.376;2024-02-28T13:46:25;102362.84;;;8.41;100.00
70053;BME280;57398;52.032;4.376;2024-02-28T13:49:14;102370.13;;;8.45;100.00
70053;BME280;57398;52.032;4.376;2024-02-28T13:52:03;102365.56;;;8.47;100.00
70053;BME280;57398;52.032;4.376;2024-02-28T13:54:51;102367.03;;;8.33;100.00
70053;BME280;57398;52.032;4.376;2024-02-28T13:57:41;102363.19;;;8.46;100.00
70053;BME280;57398;52.032;4.376;2024-02-28T14:00:29;102361.38;;;8.46;100.00
70053;BME280;57398;52.032;4.376;2024-02-28T14:03:17;102363.34;;;8.44;100.00
70053;BME280;57398;52.032;4.376;2024-02-28T14:06:05;102363.00;;;8.39;100.00
70053;BME280;57398;52.032;4.376;2024-02-28T14:08:54;102366.53;;;8.38;100.00
70053;BME280;57398;52.032;4.376;2024-02-28T14:11:42;102355.91;;;8.41;100.00
70053;BME280;57398;52.032;4.376;2024-02-28T14:14:32;102356.38;;;8.45;100.00
70053;BME280;57398;52.032;4.376;2024-02-28T14:17:20;102355.88;;;8.49;100.00
70053;BME280;57398;52.032;4.376;2024-02-28T14:20:10;102347.94;;;8.51;100.00
70053;BME280;57398;52.032;4.376;2024-02-28T14:22:58;102341.97;;;8.50;100.00
70053;BME280;57398;52.032;4.376;2024-02-28T14:25:46;102339.38;;;8.50;100.00
70053;BME280;57398;52.032;4.376;2024-02-28T14:28:34;102335.78;;;8.51;100.00
70053;BME280;57398;52.032;4.376;2024-02-28T14:31:24;102333.19;;;8.51;100.00
70053;BME280;57398;52.032;4.376;2024-02-28T14:34:13;102318.16;;;8.55;100.00
70053;BME280;57398;52.032;4.376;2024-02-28T14:37:01;102317.16;;;8.56;100.00
70053;BME280;57398;52.032;4.376;2024-02-28T14:39:49;102314.41;;;8.57;100.00
70053;BME280;57398;52.032;4.376;2024-02-28T14:42:37;102309.03;;;8.67;100.00